< < Back
Terminal Aerodrome Forecast


Current Version              Previous Versions:   1  2  3  4  5  6  7  8  9  

Terminal Aerodrome Forecast

609
FTAK31 PAJN 241700
TAFAHN
TAF
PAHN 241723Z 2418/2518 12005KT P6SM BKN025 BKN090
     FM242000 12010KT P6SM BKN090
     FM250300 13006KT P6SM BKN100
     FM250800 VRB05KT P6SM BKN035 BKN100
      AMD LTD TO CLD VIS AND WIND=

Latest METAR

937
SAUS70 KWBC 241900 RRA
MTRAHN
METAR KAHN 241851Z VRB05KT 10SM SCT055 28/13 A3030 RMK AO2 SLP255
T02780133


USA.gov is the U.S. government's official web portal to all federal, state and local government web resources and services.